KHUL/HUL METAR and TAF weather

Enter ICAO airport designator
Station Type Date Time Source
KHUL METAR 2019/07/17 17:53 UTC NOAA

KHUL 171753Z AUTO 20005KT 10SM FEW080 24/22 A2975 RMK AO2 RAB10E18 SLP072 P0000 60009 T02390217 10244 20194 58015


Station Type Date Time Source
KHUL Decoded METAR 2019/07/17 17:53 UTC NOAA

HOULTON INT'L AIRPORT, ME, United States (KHUL) 46-07N 067-48W 150M
Jul 17, 2019 - 01:53 PM EDT / 2019.07.17 1753 UTC
Wind: from the SSW (200 degrees) at 6 MPH (5 KT):0
Visibility: 10 mile(s):0
Sky conditions: mostly clear
Precipitation last hour: A trace
Temperature: 75.0 F (23.9 C)
Dew Point: 71.1 F (21.7 C)
Relative Humidity: 87%
Pressure (altimeter): 29.75 in. Hg (1007 hPa)
Pressure tendency: 0.04 inches (1.5 hPa) lower than three hours ago
ob: KHUL 171753Z AUTO 20005KT 10SM FEW080 24/22 A2975 RMK AO2 RAB10E18 SLP072 P0000 60009 T02390217 10244 20194 58015
cycle: 18

Station Type Date Time Source
KHUL TAF 2019/07/17 18:22 UTC NOAA

TAF KHUL 171720Z 1718/1818 24007KT 6SM -SHRA VCTS OVC035CB
FM172000 29007KT 6SM -SHRA VCTS OVC040CB
FM172200 33006KT P6SM VCTS BKN050CB
FM180000 34006KT P6SM BKN050
FM180200 34005KT P6SM SCT200

Example: see airport list